createdAt,value
2023-03-05T00:01:28.073Z,1.75
2023-03-05T00:03:57.116Z,1.70
2023-03-05T00:06:27.539Z,1.76
2023-03-05T00:08:56.782Z,1.82
2023-03-05T00:11:25.626Z,1.62
2023-03-05T00:13:53.037Z,1.41
2023-03-05T00:16:21.214Z,1.22
2023-03-05T00:18:49.669Z,1.20
2023-03-05T00:21:27.338Z,1.25
2023-03-05T00:23:55.617Z,1.35
2023-03-05T00:26:26.005Z,1.56
2023-03-05T00:28:54.235Z,1.64
2023-03-05T00:31:30.372Z,1.69
2023-03-05T00:34:02.281Z,1.64
2023-03-05T00:36:29.757Z,1.69
2023-03-05T00:38:57.295Z,1.55
2023-03-05T00:41:24.406Z,1.64
2023-03-05T00:43:51.451Z,1.64
2023-03-05T00:46:18.619Z,1.36
2023-03-05T00:48:45.596Z,1.32
2023-03-05T00:51:12.666Z,1.15
2023-03-05T00:53:39.620Z,1.18
2023-03-05T00:56:07.506Z,1.14
2023-03-05T00:58:34.733Z,1.04
2023-03-05T01:01:02.897Z,1.03
2023-03-05T01:03:32.159Z,1.09
2023-03-05T01:05:59.491Z,1.09
2023-03-05T01:08:27.234Z,1.11
2023-03-05T01:10:54.291Z,1.27
2023-03-05T01:13:21.588Z,1.12
2023-03-05T01:15:51.210Z,1.31
2023-03-05T01:18:19.809Z,1.33
2023-03-05T01:20:47.233Z,1.44
2023-03-05T01:23:14.728Z,1.27
2023-03-05T01:25:42.217Z,1.27
2023-03-05T01:28:09.649Z,1.30
2023-03-05T01:30:36.836Z,1.09
2023-03-05T01:33:04.252Z,1.18
2023-03-05T01:35:31.300Z,1.36
2023-03-05T01:37:58.282Z,1.30
2023-03-05T01:40:28.447Z,1.18
2023-03-05T01:43:13.365Z,1.12
2023-03-05T01:46:24.718Z,1.22
2023-03-05T01:49:10.123Z,1.12
2023-03-05T01:52:11.426Z,1.16
2023-03-05T01:54:56.152Z,1.12
2023-03-05T01:57:42.763Z,1.12
2023-03-05T02:00:16.203Z,1.07
2023-03-05T02:02:45.749Z,1.06
2023-03-05T02:05:26.964Z,1.14
2023-03-05T02:08:04.942Z,1.10
2023-03-05T02:10:43.491Z,1.05
2023-03-05T02:13:17.242Z,1.02
2023-03-05T02:15:44.941Z,1.00
2023-03-05T02:18:12.427Z,1.07
2023-03-05T02:20:57.718Z,1.05
2023-03-05T02:23:33.810Z,1.00
2023-03-05T02:26:00.783Z,0.98
2023-03-05T02:28:51.147Z,0.98
2023-03-05T02:31:24.070Z,0.99
2023-03-05T02:33:53.880Z,1.01
2023-03-05T02:36:23.158Z,1.27
2023-03-05T02:38:50.410Z,1.12
2023-03-05T02:41:17.355Z,1.01
2023-03-05T02:43:44.384Z,1.25
2023-03-05T02:46:12.235Z,1.15
2023-03-05T02:48:39.799Z,1.30
2023-03-05T02:51:08.421Z,1.28
2023-03-05T02:53:35.577Z,1.49
2023-03-05T02:56:03.030Z,1.52
2023-03-05T02:58:32.744Z,1.53
2023-03-05T03:00:59.820Z,1.57
2023-03-05T03:03:26.970Z,1.52
2023-03-05T03:05:53.957Z,1.41
2023-03-05T03:08:21.032Z,1.60
2023-03-05T03:10:48.059Z,1.71
2023-03-05T03:13:15.950Z,1.57
2023-03-05T03:15:42.947Z,1.73
2023-03-05T03:18:10.001Z,1.79
2023-03-05T03:20:39.177Z,1.80
2023-03-05T03:23:07.325Z,1.70
2023-03-05T03:25:34.739Z,1.66
2023-03-05T03:28:01.786Z,1.43
2023-03-05T03:30:28.850Z,1.37
2023-03-05T03:32:55.811Z,1.22
2023-03-05T03:35:22.850Z,1.12
2023-03-05T03:37:49.811Z,1.20
2023-03-05T03:40:17.000Z,1.37
2023-03-05T03:42:43.922Z,1.28
2023-03-05T03:45:11.635Z,1.20
2023-03-05T03:47:38.711Z,1.46
2023-03-05T03:50:06.265Z,1.49
2023-03-05T03:52:33.258Z,1.45
2023-03-05T03:55:02.107Z,1.29
2023-03-05T03:57:30.911Z,1.33
2023-03-05T03:59:57.941Z,1.50
2023-03-05T04:02:25.056Z,1.60
2023-03-05T04:04:52.204Z,1.67
2023-03-05T04:07:19.872Z,1.79
2023-03-05T04:09:46.950Z,1.70
2023-03-05T04:12:18.390Z,1.76
2023-03-05T04:14:47.427Z,1.68
2023-03-05T04:17:15.689Z,1.64
2023-03-05T04:19:43.059Z,1.73
2023-03-05T04:22:16.706Z,1.98
2023-03-05T04:24:44.528Z,2.00
2023-03-05T04:27:12.482Z,1.95
2023-03-05T04:29:39.537Z,1.76
2023-03-05T04:32:07.257Z,1.82
2023-03-05T04:34:35.261Z,1.85
2023-03-05T04:37:02.290Z,1.84
2023-03-05T04:39:29.504Z,1.93
2023-03-05T04:41:56.547Z,1.99
2023-03-05T04:44:25.298Z,2.15
2023-03-05T04:46:52.718Z,2.03
2023-03-05T04:49:20.680Z,1.82
2023-03-05T04:51:47.823Z,1.75
2023-03-05T04:54:14.802Z,1.60
2023-03-05T04:56:41.749Z,1.69
2023-03-05T04:59:08.822Z,1.66
2023-03-05T05:01:35.864Z,1.81
2023-03-05T05:04:02.956Z,2.01
2023-03-05T05:06:30.329Z,1.97
2023-03-05T05:08:57.365Z,1.91
2023-03-05T05:11:24.295Z,2.00
2023-03-05T05:13:51.274Z,1.86
2023-03-05T05:16:18.544Z,1.90
2023-03-05T05:18:45.491Z,1.84
2023-03-05T05:21:14.428Z,1.83
2023-03-05T05:23:41.646Z,1.70
2023-03-05T05:26:09.417Z,1.64
2023-03-05T05:28:38.332Z,1.57
2023-03-05T05:31:10.390Z,1.63
2023-03-05T05:33:37.860Z,1.64
2023-03-05T05:36:08.213Z,1.72
2023-03-05T05:38:35.425Z,1.96
2023-03-05T05:41:11.542Z,2.08
2023-03-05T05:43:39.122Z,2.10
2023-03-05T05:46:09.590Z,2.28
2023-03-05T05:48:37.476Z,2.31
2023-03-05T05:51:10.373Z,2.39
2023-03-05T05:53:38.315Z,2.32
2023-03-05T05:56:08.229Z,2.22
2023-03-05T05:58:37.355Z,2.02
2023-03-05T06:01:16.016Z,1.84
2023-03-05T06:03:43.067Z,1.73
2023-03-05T06:06:16.775Z,1.62
2023-03-05T06:08:44.069Z,1.62
2023-03-05T06:11:12.020Z,1.82
2023-03-05T06:13:39.312Z,1.98
2023-03-05T06:16:11.734Z,2.19
2023-03-05T06:18:38.840Z,2.07
2023-03-05T06:21:09.643Z,1.99
2023-03-05T06:23:36.699Z,2.08
2023-03-05T06:26:07.202Z,2.32
2023-03-05T06:28:35.577Z,2.25
2023-03-05T06:31:15.783Z,1.93
2023-03-05T06:33:42.926Z,1.82
2023-03-05T06:36:13.618Z,1.85
2023-03-05T06:38:41.707Z,1.83
2023-03-05T06:41:16.027Z,1.73
2023-03-05T06:43:45.640Z,1.72
2023-03-05T06:46:21.179Z,1.99
2023-03-05T06:48:50.038Z,1.68
2023-03-05T06:51:21.722Z,1.60
2023-03-05T06:53:49.588Z,1.54
2023-03-05T06:56:18.451Z,1.92
2023-03-05T06:58:47.633Z,2.06
2023-03-05T07:01:16.213Z,2.11
2023-03-05T07:03:43.722Z,1.81
2023-03-05T07:06:14.527Z,1.64
2023-03-05T07:08:42.238Z,1.60
2023-03-05T07:11:15.656Z,1.63
2023-03-05T07:13:43.579Z,1.71
2023-03-05T07:16:16.013Z,1.69
2023-03-05T07:18:43.574Z,1.75
2023-03-05T07:21:15.657Z,1.73
2023-03-05T07:23:42.686Z,1.75
2023-03-05T07:26:11.374Z,1.73
2023-03-05T07:28:38.408Z,1.80
2023-03-05T07:31:09.066Z,1.98
2023-03-05T07:33:37.239Z,1.96
2023-03-05T07:36:08.279Z,2.04
2023-03-05T07:38:35.662Z,2.35
2023-03-05T07:41:12.124Z,2.31
2023-03-05T07:43:39.643Z,2.27
2023-03-05T07:46:12.790Z,2.09
2023-03-05T07:48:39.849Z,2.34
2023-03-05T07:51:11.593Z,2.57
2023-03-05T07:53:38.624Z,2.67
2023-03-05T07:56:06.489Z,2.55
2023-03-05T07:58:33.405Z,2.38
2023-03-05T08:01:00.569Z,2.38
2023-03-05T08:03:27.649Z,2.42
2023-03-05T08:05:54.632Z,2.56
2023-03-05T08:08:21.661Z,2.30
2023-03-05T08:10:48.674Z,2.53
2023-03-05T08:13:15.677Z,2.66
2023-03-05T08:15:42.798Z,2.68
2023-03-05T08:18:09.839Z,2.93
2023-03-05T08:20:37.219Z,3.05
2023-03-05T08:23:04.581Z,2.97
2023-03-05T08:25:32.051Z,2.95
2023-03-05T08:27:59.004Z,3.02
2023-03-05T08:30:27.477Z,3.10
2023-03-05T08:32:55.601Z,3.07
2023-03-05T08:35:23.486Z,3.11
2023-03-05T08:37:50.617Z,3.30
2023-03-05T08:40:18.217Z,3.28
2023-03-05T08:42:46.058Z,3.40
2023-03-05T08:45:13.495Z,3.49
2023-03-05T08:47:40.478Z,3.40
2023-03-05T08:50:08.147Z,3.35
2023-03-05T08:52:35.154Z,3.42
2023-03-05T08:55:02.392Z,3.49
2023-03-05T08:57:29.397Z,3.43
2023-03-05T08:59:56.457Z,3.31
2023-03-05T09:02:23.462Z,3.12
2023-03-05T09:04:50.542Z,3.16
2023-03-05T09:07:17.548Z,3.30
2023-03-05T09:09:44.500Z,3.29
2023-03-05T09:12:13.375Z,3.38
2023-03-05T09:14:41.230Z,3.37
2023-03-05T09:17:09.145Z,3.61
2023-03-05T09:19:36.259Z,3.60
2023-03-05T09:22:03.374Z,3.60
2023-03-05T09:24:30.684Z,3.47
2023-03-05T09:27:00.877Z,3.69
2023-03-05T09:29:29.408Z,3.80
2023-03-05T09:31:56.954Z,3.77
2023-03-05T09:34:24.547Z,3.81
2023-03-05T09:36:51.468Z,3.74
2023-03-05T09:39:18.703Z,3.62
2023-03-05T09:42:09.268Z,3.61
2023-03-05T09:45:04.085Z,3.74
2023-03-05T09:47:49.897Z,3.88
2023-03-05T09:50:38.947Z,3.91
2023-03-05T09:53:21.658Z,3.89
2023-03-05T09:55:56.797Z,3.76
2023-03-05T09:58:37.813Z,3.52
2023-03-05T10:01:07.540Z,3.40
2023-03-05T10:04:04.356Z,3.55
2023-03-05T10:06:46.281Z,3.70
2023-03-05T10:09:44.374Z,3.60
2023-03-05T10:12:18.216Z,3.60
2023-03-05T10:14:45.681Z,3.99
2023-03-05T10:17:31.156Z,4.12
2023-03-05T10:20:03.124Z,4.33
2023-03-05T10:22:35.635Z,4.50
2023-03-05T10:25:26.411Z,4.47
2023-03-05T10:28:05.842Z,4.20
2023-03-05T10:31:05.295Z,3.70
2023-03-05T10:33:59.779Z,3.73
2023-03-05T10:37:05.997Z,3.47
2023-03-05T10:39:53.141Z,3.76
2023-03-05T10:42:49.379Z,3.88
2023-03-05T10:45:26.850Z,4.06
2023-03-05T10:48:09.470Z,4.13
2023-03-05T10:50:43.125Z,4.30
2023-03-05T10:53:29.733Z,4.34
2023-03-05T10:56:00.554Z,4.43
2023-03-05T10:58:28.607Z,4.36
2023-03-05T11:01:01.866Z,4.54
2023-03-05T11:04:01.667Z,4.56
2023-03-05T11:06:40.557Z,4.74
2023-03-05T11:09:24.237Z,4.87
2023-03-05T11:12:05.939Z,4.94
2023-03-05T11:14:34.971Z,5.03
2023-03-05T11:17:11.352Z,5.19
2023-03-05T11:19:39.579Z,5.23
2023-03-05T11:22:10.769Z,5.04
2023-03-05T11:24:38.708Z,5.42
2023-03-05T11:27:31.308Z,5.65
2023-03-05T11:29:59.493Z,6.20
2023-03-05T11:32:28.646Z,6.42
2023-03-05T11:34:57.449Z,6.29
2023-03-05T11:37:30.454Z,6.57
2023-03-05T11:40:21.111Z,6.31
2023-03-05T11:42:56.280Z,5.53
2023-03-05T11:45:25.162Z,5.45
2023-03-05T11:47:55.351Z,5.48
2023-03-05T11:50:24.428Z,5.93
2023-03-05T11:52:59.162Z,6.19
2023-03-05T11:55:35.210Z,6.06
2023-03-05T11:58:08.815Z,5.66
2023-03-05T12:00:38.039Z,5.72
2023-03-05T12:03:12.270Z,5.83
2023-03-05T12:05:43.708Z,5.90
2023-03-05T12:08:15.659Z,5.90
2023-03-05T12:10:43.013Z,6.06
2023-03-05T12:13:33.857Z,6.08
2023-03-05T12:16:26.187Z,5.69
2023-03-05T12:19:02.987Z,5.86
2023-03-05T12:21:39.558Z,5.86
2023-03-05T12:24:39.585Z,6.02
2023-03-05T12:27:10.044Z,5.97
2023-03-05T12:29:52.506Z,5.94
2023-03-05T12:32:23.097Z,5.91
2023-03-05T12:34:58.096Z,6.10
2023-03-05T12:37:25.600Z,6.14
2023-03-05T12:40:13.588Z,6.08
2023-03-05T12:42:48.062Z,6.26
2023-03-05T12:45:24.816Z,6.26
2023-03-05T12:47:57.991Z,6.00
2023-03-05T12:50:28.488Z,6.10
2023-03-05T12:53:00.218Z,6.01
2023-03-05T12:55:48.302Z,6.11
2023-03-05T12:59:04.245Z,6.07
2023-03-05T13:01:51.129Z,6.05
2023-03-05T13:04:22.739Z,5.98
2023-03-05T13:07:00.622Z,6.00
2023-03-05T13:09:31.554Z,5.71
2023-03-05T13:11:59.341Z,5.90
2023-03-05T13:14:37.141Z,5.95
2023-03-05T13:17:32.038Z,6.12
2023-03-05T13:20:00.509Z,6.24
2023-03-05T13:22:28.190Z,6.26
2023-03-05T13:25:16.092Z,6.13
2023-03-05T13:27:44.148Z,6.04
2023-03-05T13:30:27.293Z,6.03
2023-03-05T13:33:03.067Z,5.89
2023-03-05T13:35:34.535Z,5.91
2023-03-05T13:38:02.193Z,5.90
2023-03-05T13:40:31.739Z,5.85
2023-03-05T13:43:16.965Z,5.86
2023-03-05T13:45:44.541Z,5.78
2023-03-05T13:48:19.143Z,5.89
2023-03-05T13:50:48.692Z,5.78
2023-03-05T13:53:30.373Z,5.63
2023-03-05T13:56:03.355Z,5.50
2023-03-05T13:58:52.437Z,5.52
2023-03-05T14:01:43.853Z,5.46
2023-03-05T14:04:14.302Z,5.50
2023-03-05T14:06:55.897Z,5.57
2023-03-05T14:09:25.707Z,5.70
2023-03-05T14:12:35.744Z,5.53
2023-03-05T14:15:06.833Z,5.69
2023-03-05T14:17:42.617Z,5.56
2023-03-05T14:20:29.811Z,5.57
2023-03-05T14:22:59.766Z,5.48
2023-03-05T14:25:38.642Z,5.48
2023-03-05T14:28:16.583Z,5.32
2023-03-05T14:30:48.726Z,5.27
2023-03-05T14:33:23.399Z,5.52
2023-03-05T14:35:51.531Z,5.49
2023-03-05T14:38:27.948Z,5.49
2023-03-05T14:40:55.509Z,5.85
2023-03-05T14:43:22.877Z,5.79
2023-03-05T14:45:50.405Z,5.93
2023-03-05T14:48:21.214Z,5.70
2023-03-05T14:50:56.259Z,5.86
2023-03-05T14:53:26.206Z,5.85
2023-03-05T14:55:58.088Z,5.56
2023-03-05T14:58:32.350Z,5.64
2023-03-05T15:00:59.899Z,5.49
2023-03-05T15:03:28.023Z,5.24
2023-03-05T15:05:57.260Z,5.03
2023-03-05T15:08:27.882Z,4.81
2023-03-05T15:10:55.932Z,4.76
2023-03-05T15:13:23.372Z,4.61
2023-03-05T15:15:51.548Z,4.52
2023-03-05T15:18:21.223Z,4.43
2023-03-05T15:20:49.432Z,4.41
2023-03-05T15:23:17.070Z,4.34
2023-03-05T15:25:44.611Z,4.40
2023-03-05T15:28:12.250Z,4.25
2023-03-05T15:30:43.465Z,4.29
2023-03-05T15:33:14.107Z,4.25
2023-03-05T15:35:42.070Z,4.23
2023-03-05T15:38:09.578Z,4.26
2023-03-05T15:40:37.136Z,4.19
2023-03-05T15:43:04.533Z,4.13
2023-03-05T15:45:31.986Z,4.02
2023-03-05T15:47:59.629Z,4.00
2023-03-05T15:50:27.027Z,3.99
2023-03-05T15:52:54.519Z,4.01
2023-03-05T15:55:22.074Z,4.05
2023-03-05T15:57:51.316Z,3.98
2023-03-05T16:00:22.609Z,3.98
2023-03-05T16:02:51.329Z,3.98
2023-03-05T16:05:18.851Z,3.92
2023-03-05T16:07:46.989Z,3.93
2023-03-05T16:10:17.715Z,3.85
2023-03-05T16:12:48.807Z,3.82
2023-03-05T16:15:18.708Z,3.83
2023-03-05T16:17:48.870Z,3.87
2023-03-05T16:20:16.733Z,3.87
2023-03-05T16:22:44.544Z,3.76
2023-03-05T16:25:12.230Z,3.73
2023-03-05T16:27:39.646Z,3.79
2023-03-05T16:30:07.672Z,3.77
2023-03-05T16:32:35.030Z,3.70
2023-03-05T16:35:02.310Z,3.76
2023-03-05T16:37:29.766Z,3.79
2023-03-05T16:39:59.319Z,3.67
2023-03-05T16:42:26.765Z,3.65
2023-03-05T16:44:54.649Z,3.61
2023-03-05T16:47:22.078Z,3.64
2023-03-05T16:49:49.463Z,3.67
2023-03-05T16:52:19.785Z,3.63
2023-03-05T16:54:48.614Z,3.62
2023-03-05T16:57:16.406Z,3.61
2023-03-05T16:59:43.942Z,3.52
2023-03-05T17:02:13.258Z,3.53
2023-03-05T17:04:41.168Z,3.43
2023-03-05T17:07:08.855Z,3.36
2023-03-05T17:09:36.282Z,3.43
2023-03-05T17:12:05.473Z,3.40
2023-03-05T17:14:32.968Z,3.26
2023-03-05T17:17:01.344Z,3.23
2023-03-05T17:19:28.792Z,3.14
2023-03-05T17:21:56.611Z,3.14
2023-03-05T17:24:24.185Z,3.21
2023-03-05T17:26:51.546Z,3.28
2023-03-05T17:29:19.662Z,3.06
2023-03-05T17:31:47.108Z,2.99
2023-03-05T17:34:16.652Z,2.95
2023-03-05T17:36:45.283Z,3.06
2023-03-05T17:39:13.202Z,3.19
2023-03-05T17:41:40.705Z,3.08
2023-03-05T17:44:08.058Z,3.17
2023-03-05T17:46:35.423Z,3.22
2023-03-05T17:49:02.789Z,3.33
2023-03-05T17:51:30.194Z,3.32
2023-03-05T17:53:58.701Z,3.32
2023-03-05T17:56:26.870Z,3.20
2023-03-05T17:58:54.659Z,3.27
2023-03-05T18:01:27.663Z,3.34
2023-03-05T18:03:55.287Z,3.22
2023-03-05T18:06:22.886Z,3.31
2023-03-05T18:08:50.393Z,3.28
2023-03-05T18:11:18.234Z,3.33
2023-03-05T18:13:45.649Z,3.36
2023-03-05T18:16:16.851Z,3.26
2023-03-05T18:18:44.973Z,3.17
2023-03-05T18:21:12.601Z,3.20
2023-03-05T18:23:40.074Z,3.25
2023-03-05T18:26:07.431Z,3.25
2023-03-05T18:28:34.852Z,3.02
2023-03-05T18:31:02.453Z,2.98
2023-03-05T18:33:29.906Z,3.13
2023-03-05T18:35:58.488Z,3.09
2023-03-05T18:38:27.913Z,3.00
2023-03-05T18:40:56.584Z,2.69
2023-03-05T18:43:25.107Z,2.64
2023-03-05T18:45:54.223Z,2.49
2023-03-05T18:48:21.988Z,2.33
2023-03-05T18:50:53.979Z,2.23
2023-03-05T18:53:21.732Z,2.18
2023-03-05T18:55:51.366Z,2.12
2023-03-05T18:58:19.007Z,2.07
2023-03-05T19:00:47.183Z,2.04
2023-03-05T19:03:15.947Z,1.99
2023-03-05T19:05:43.520Z,1.95
2023-03-05T19:08:11.039Z,1.96
2023-03-05T19:10:38.772Z,1.93
2023-03-05T19:13:29.128Z,2.03
2023-03-05T19:15:56.533Z,2.18
2023-03-05T19:18:26.421Z,1.99
2023-03-05T19:20:56.891Z,1.95
2023-03-05T19:23:25.353Z,1.93
2023-03-05T19:25:52.785Z,1.87
2023-03-05T19:28:21.252Z,1.99
2023-03-05T19:30:49.791Z,2.01
2023-03-05T19:33:17.355Z,2.13
2023-03-05T19:35:44.893Z,2.25
2023-03-05T19:38:12.215Z,2.05
2023-03-05T19:40:41.670Z,1.82
2023-03-05T19:43:09.140Z,1.75
2023-03-05T19:45:36.634Z,1.70
2023-03-05T19:48:04.139Z,1.69
2023-03-05T19:50:33.488Z,1.81
2023-03-05T19:53:01.924Z,1.97
2023-03-05T19:55:29.317Z,1.92
2023-03-05T19:57:56.713Z,1.92
2023-03-05T20:00:27.470Z,1.85
2023-03-05T20:02:54.845Z,1.77
2023-03-05T20:05:25.509Z,1.73
2023-03-05T20:07:53.626Z,1.73
2023-03-05T20:10:21.758Z,2.25
2023-03-05T20:12:50.521Z,2.39
2023-03-05T20:15:18.673Z,2.35
2023-03-05T20:17:46.031Z,2.20
2023-03-05T20:20:15.754Z,2.03
2023-03-05T20:22:47.476Z,1.99
2023-03-05T20:25:17.309Z,1.70
2023-03-05T20:27:44.965Z,1.61
2023-03-05T20:30:15.319Z,1.79
2023-03-05T20:32:42.778Z,1.88
2023-03-05T20:35:14.847Z,1.95
2023-03-05T20:37:49.990Z,1.73
2023-03-05T20:40:17.752Z,1.61
2023-03-05T20:42:45.392Z,1.67
2023-03-05T20:45:13.015Z,1.56
2023-03-05T20:47:45.928Z,1.44
2023-03-05T20:50:14.875Z,1.56
2023-03-05T20:52:42.312Z,1.45
2023-03-05T20:55:10.087Z,1.35
2023-03-05T20:57:37.557Z,1.39
2023-03-05T21:00:06.351Z,1.57
2023-03-05T21:02:33.759Z,1.63
2023-03-05T21:05:01.175Z,1.68
2023-03-05T21:07:29.658Z,1.82
2023-03-05T21:09:57.057Z,1.79
2023-03-05T21:12:24.555Z,1.67
2023-03-05T21:14:51.992Z,1.80
2023-03-05T21:17:19.655Z,1.77
2023-03-05T21:19:47.413Z,1.69
2023-03-05T21:22:14.949Z,1.65
2023-03-05T21:24:54.555Z,1.63
2023-03-05T21:27:22.245Z,1.55
2023-03-05T21:29:50.810Z,1.49
2023-03-05T21:32:18.218Z,1.43
2023-03-05T21:34:45.605Z,1.38
2023-03-05T21:37:12.979Z,1.25
2023-03-05T21:39:40.376Z,1.23
2023-03-05T21:42:08.807Z,1.45
2023-03-05T21:44:36.307Z,1.43
2023-03-05T21:47:03.780Z,1.40
2023-03-05T21:49:31.132Z,1.54
2023-03-05T21:52:16.414Z,1.80
2023-03-05T21:54:44.036Z,1.78
2023-03-05T21:57:12.337Z,1.55
2023-03-05T21:59:41.406Z,1.36
2023-03-05T22:02:12.996Z,1.31
2023-03-05T22:04:40.781Z,1.26
2023-03-05T22:07:08.604Z,1.56
2023-03-05T22:09:36.300Z,1.65
2023-03-05T22:12:04.675Z,1.30
2023-03-05T22:14:32.207Z,1.08
2023-03-05T22:17:03.308Z,0.98
2023-03-05T22:19:30.690Z,0.91
2023-03-05T22:21:58.207Z,0.88
2023-03-05T22:24:25.636Z,0.99
2023-03-05T22:26:53.017Z,1.32
2023-03-05T22:29:20.436Z,1.26
2023-03-05T22:31:47.833Z,1.18
2023-03-05T22:34:15.194Z,1.09
2023-03-05T22:36:42.668Z,1.01
2023-03-05T22:39:10.015Z,0.92
2023-03-05T22:41:37.471Z,0.90
2023-03-05T22:44:04.948Z,0.83
2023-03-05T22:46:32.299Z,0.79
2023-03-05T22:48:59.720Z,0.71
2023-03-05T22:51:27.085Z,0.69
2023-03-05T22:53:54.515Z,0.69
2023-03-05T22:56:21.986Z,0.72
2023-03-05T22:58:49.528Z,0.88
2023-03-05T23:01:24.800Z,0.94
2023-03-05T23:03:58.724Z,1.07
2023-03-05T23:06:27.313Z,1.07
2023-03-05T23:08:54.882Z,1.26
2023-03-05T23:11:22.383Z,1.18
2023-03-05T23:13:49.822Z,1.35
2023-03-05T23:16:17.259Z,1.15
2023-03-05T23:18:44.581Z,1.02
2023-03-05T23:21:11.927Z,0.95
2023-03-05T23:23:39.396Z,1.11
2023-03-05T23:26:06.757Z,1.34
2023-03-05T23:28:34.148Z,1.25
2023-03-05T23:31:02.632Z,1.16
2023-03-05T23:33:30.084Z,1.20
2023-03-05T23:35:59.544Z,1.16
2023-03-05T23:38:28.844Z,1.28
2023-03-05T23:40:59.766Z,1.31
2023-03-05T23:43:28.740Z,1.37
2023-03-05T23:45:56.548Z,1.42
2023-03-05T23:48:24.986Z,1.37
2023-03-05T23:50:52.911Z,1.28
2023-03-05T23:53:28.831Z,1.20
2023-03-05T23:55:56.884Z,1.17
2023-03-05T23:58:24.652Z,1.19
